sensor_id;sensor_type;location;lat;lon;timestamp;temperature;humidity
62464;SHT31;48512;48.552;9.380;2023-04-02T00:07:52;8.63;76.91
62464;SHT31;48512;48.552;9.380;2023-04-02T00:10:45;8.50;77.18
62464;SHT31;48512;48.552;9.380;2023-04-02T00:15:44;8.46;76.95
62464;SHT31;48512;48.552;9.380;2023-04-02T00:18:17;8.64;76.59
62464;SHT31;48512;48.552;9.380;2023-04-02T00:20:47;8.84;76.12
62464;SHT31;48512;48.552;9.380;2023-04-02T00:23:15;8.53;77.20
62464;SHT31;48512;48.552;9.380;2023-04-02T00:25:43;8.54;76.67
62464;SHT31;48512;48.552;9.380;2023-04-02T00:28:17;8.59;77.00
62464;SHT31;48512;48.552;9.380;2023-04-02T00:30:48;8.49;77.19
62464;SHT31;48512;48.552;9.380;2023-04-02T00:33:16;8.46;77.11
62464;SHT31;48512;48.552;9.380;2023-04-02T00:35:43;8.50;77.10
62464;SHT31;48512;48.552;9.380;2023-04-02T00:38:18;8.59;77.00
62464;SHT31;48512;48.552;9.380;2023-04-02T00:40:46;8.63;76.98
62464;SHT31;48512;48.552;9.380;2023-04-02T00:43:13;8.64;77.33
62464;SHT31;48512;48.552;9.380;2023-04-02T00:45:44;8.63;77.07
62464;SHT31;48512;48.552;9.380;2023-04-02T00:51:27;8.59;77.58
62464;SHT31;48512;48.552;9.380;2023-04-02T00:53:57;8.42;77.90
62464;SHT31;48512;48.552;9.380;2023-04-02T00:56:30;8.72;76.84
62464;SHT31;48512;48.552;9.380;2023-04-02T00:58:57;8.70;76.66
62464;SHT31;48512;48.552;9.380;2023-04-02T01:01:27;8.53;77.28
62464;SHT31;48512;48.552;9.380;2023-04-02T01:03:58;8.37;77.94
62464;SHT31;48512;48.552;9.380;2023-04-02T01:06:28;8.28;78.32
62464;SHT31;48512;48.552;9.380;2023-04-02T01:12:02;8.56;77.52
62464;SHT31;48512;48.552;9.380;2023-04-02T01:23:15;8.28;79.13
62464;SHT31;48512;48.552;9.380;2023-04-02T01:26:12;8.28;79.31
62464;SHT31;48512;48.552;9.380;2023-04-02T01:28:47;8.25;79.66
62464;SHT31;48512;48.552;9.380;2023-04-02T01:31:16;8.29;79.52
62464;SHT31;48512;48.552;9.380;2023-04-02T01:33:42;8.32;79.66
62464;SHT31;48512;48.552;9.380;2023-04-02T01:42:34;8.32;80.07
62464;SHT31;48512;48.552;9.380;2023-04-02T01:44:45;8.23;80.54
62464;SHT31;48512;48.552;9.380;2023-04-02T01:47:14;8.61;78.25
62464;SHT31;48512;48.552;9.380;2023-04-02T01:49:42;8.46;78.72
62464;SHT31;48512;48.552;9.380;2023-04-02T01:52:14;8.39;79.09
62464;SHT31;48512;48.552;9.380;2023-04-02T01:54:44;8.65;78.33
62464;SHT31;48512;48.552;9.380;2023-04-02T01:57:12;8.39;78.95
62464;SHT31;48512;48.552;9.380;2023-04-02T01:59:39;8.28;79.37
62464;SHT31;48512;48.552;9.380;2023-04-02T02:02:11;8.52;78.68
62464;SHT31;48512;48.552;9.380;2023-04-02T02:04:39;8.64;78.24
62464;SHT31;48512;48.552;9.380;2023-04-02T02:07:13;8.50;78.63
62464;SHT31;48512;48.552;9.380;2023-04-02T02:09:44;8.25;79.44
62464;SHT31;48512;48.552;9.380;2023-04-02T02:12:12;8.23;79.84
62464;SHT31;48512;48.552;9.380;2023-04-02T02:14:44;8.28;79.59
62464;SHT31;48512;48.552;9.380;2023-04-02T02:17:14;8.42;79.25
62464;SHT31;48512;48.552;9.380;2023-04-02T02:19:52;8.34;79.60
62464;SHT31;48512;48.552;9.380;2023-04-02T02:22:32;8.64;78.16
62464;SHT31;48512;48.552;9.380;2023-04-02T02:25:02;8.30;79.29
62464;SHT31;48512;48.552;9.380;2023-04-02T02:27:46;8.23;79.80
62464;SHT31;48512;48.552;9.380;2023-04-02T02:30:21;8.25;80.13
62464;SHT31;48512;48.552;9.380;2023-04-02T02:35:19;8.32;80.01
62464;SHT31;48512;48.552;9.380;2023-04-02T02:40:49;8.46;79.19
62464;SHT31;48512;48.552;9.380;2023-04-02T02:43:18;8.40;79.38
62464;SHT31;48512;48.552;9.380;2023-04-02T02:45:45;8.32;79.71
62464;SHT31;48512;48.552;9.380;2023-04-02T02:48:14;8.33;79.88
62464;SHT31;48512;48.552;9.380;2023-04-02T02:50:43;8.40;79.69
62464;SHT31;48512;48.552;9.380;2023-04-02T02:53:22;8.40;79.31
62464;SHT31;48512;48.552;9.380;2023-04-02T02:55:52;8.40;79.44
62464;SHT31;48512;48.552;9.380;2023-04-02T02:58:26;8.49;79.27
62464;SHT31;48512;48.552;9.380;2023-04-02T03:01:02;8.33;80.34
62464;SHT31;48512;48.552;9.380;2023-04-02T03:03:31;8.25;79.98
62464;SHT31;48512;48.552;9.380;2023-04-02T03:06:06;8.19;80.12
62464;SHT31;48512;48.552;9.380;2023-04-02T03:08:39;8.39;79.68
62464;SHT31;48512;48.552;9.380;2023-04-02T03:11:17;8.23;80.12
62464;SHT31;48512;48.552;9.380;2023-04-02T03:13:49;8.36;79.86
62464;SHT31;48512;48.552;9.380;2023-04-02T03:16:24;8.50;78.72
62464;SHT31;48512;48.552;9.380;2023-04-02T03:18:57;8.44;79.37
62464;SHT31;48512;48.552;9.380;2023-04-02T03:21:51;8.39;79.18
62464;SHT31;48512;48.552;9.380;2023-04-02T03:27:30;8.46;79.12
62464;SHT31;48512;48.552;9.380;2023-04-02T03:32:46;8.44;79.66
62464;SHT31;48512;48.552;9.380;2023-04-02T03:37:59;8.56;79.61
62464;SHT31;48512;48.552;9.380;2023-04-02T03:40:34;8.53;79.46
62464;SHT31;48512;48.552;9.380;2023-04-02T03:43:12;8.60;79.82
62464;SHT31;48512;48.552;9.380;2023-04-02T03:45:45;8.37;80.90
62464;SHT31;48512;48.552;9.380;2023-04-02T03:48:30;8.43;80.35
62464;SHT31;48512;48.552;9.380;2023-04-02T03:51:03;8.46;79.65
62464;SHT31;48512;48.552;9.380;2023-04-02T03:53:32;8.47;79.75
62464;SHT31;48512;48.552;9.380;2023-04-02T03:56:00;8.39;80.59
62464;SHT31;48512;48.552;9.380;2023-04-02T04:01:27;8.50;80.19
62464;SHT31;48512;48.552;9.380;2023-04-02T04:04:05;8.39;81.11
62464;SHT31;48512;48.552;9.380;2023-04-02T04:06:34;8.49;80.46
62464;SHT31;48512;48.552;9.380;2023-04-02T04:11:34;8.36;81.12
62464;SHT31;48512;48.552;9.380;2023-04-02T04:14:18;8.25;81.33
62464;SHT31;48512;48.552;9.380;2023-04-02T04:16:53;8.26;81.47
62464;SHT31;48512;48.552;9.380;2023-04-02T04:19:45;8.54;81.06
62464;SHT31;48512;48.552;9.380;2023-04-02T04:22:24;8.33;81.46
62464;SHT31;48512;48.552;9.380;2023-04-02T04:25:01;8.44;81.52
62464;SHT31;48512;48.552;9.380;2023-04-02T04:30:29;8.29;82.54
62464;SHT31;48512;48.552;9.380;2023-04-02T04:33:23;8.26;82.69
62464;SHT31;48512;48.552;9.380;2023-04-02T04:35:59;8.22;82.75
62464;SHT31;48512;48.552;9.380;2023-04-02T04:38:36;8.32;82.43
62464;SHT31;48512;48.552;9.380;2023-04-02T04:41:12;8.42;81.48
62464;SHT31;48512;48.552;9.380;2023-04-02T04:44:00;8.23;82.04
62464;SHT31;48512;48.552;9.380;2023-04-02T04:54:46;8.22;82.38
62464;SHT31;48512;48.552;9.380;2023-04-02T05:00:00;8.43;81.49
62464;SHT31;48512;48.552;9.380;2023-04-02T05:02:37;8.28;82.22
62464;SHT31;48512;48.552;9.380;2023-04-02T05:05:17;8.34;82.37
62464;SHT31;48512;48.552;9.380;2023-04-02T05:07:50;8.12;83.52
62464;SHT31;48512;48.552;9.380;2023-04-02T05:13:17;8.22;84.10
62464;SHT31;48512;48.552;9.380;2023-04-02T05:18:44;8.23;84.76
62464;SHT31;48512;48.552;9.380;2023-04-02T05:26:59;7.96;85.84
62464;SHT31;48512;48.552;9.380;2023-04-02T05:29:33;8.01;85.72
62464;SHT31;48512;48.552;9.380;2023-04-02T05:32:25;8.02;85.80
62464;SHT31;48512;48.552;9.380;2023-04-02T05:34:54;8.12;85.40
62464;SHT31;48512;48.552;9.380;2023-04-02T05:37:25;8.07;85.70
62464;SHT31;48512;48.552;9.380;2023-04-02T05:39:59;8.09;85.37
62464;SHT31;48512;48.552;9.380;2023-04-02T05:42:35;8.13;85.40
62464;SHT31;48512;48.552;9.380;2023-04-02T05:45:33;8.23;85.26
62464;SHT31;48512;48.552;9.380;2023-04-02T05:48:26;8.26;85.23
62464;SHT31;48512;48.552;9.380;2023-04-02T05:50:53;8.39;84.77
62464;SHT31;48512;48.552;9.380;2023-04-02T05:53:33;8.44;83.99
62464;SHT31;48512;48.552;9.380;2023-04-02T05:56:23;8.37;84.69
62464;SHT31;48512;48.552;9.380;2023-04-02T05:58:53;8.39;83.92
62464;SHT31;48512;48.552;9.380;2023-04-02T06:01:50;8.33;84.51
62464;SHT31;48512;48.552;9.380;2023-04-02T06:04:53;8.26;84.64
62464;SHT31;48512;48.552;9.380;2023-04-02T06:07:28;8.37;84.52
62464;SHT31;48512;48.552;9.380;2023-04-02T06:10:11;8.32;84.12
62464;SHT31;48512;48.552;9.380;2023-04-02T06:12:43;8.43;84.11
62464;SHT31;48512;48.552;9.380;2023-04-02T06:15:14;8.49;83.99
62464;SHT31;48512;48.552;9.380;2023-04-02T06:17:58;8.42;84.26
62464;SHT31;48512;48.552;9.380;2023-04-02T06:20:26;8.53;84.18
62464;SHT31;48512;48.552;9.380;2023-04-02T06:25:31;8.53;82.85
62464;SHT31;48512;48.552;9.380;2023-04-02T06:28:02;8.52;83.39
62464;SHT31;48512;48.552;9.380;2023-04-02T06:30:35;8.56;82.89
62464;SHT31;48512;48.552;9.380;2023-04-02T06:33:04;8.80;82.49
62464;SHT31;48512;48.552;9.380;2023-04-02T06:35:34;8.87;81.38
62464;SHT31;48512;48.552;9.380;2023-04-02T06:38:03;8.85;81.74
62464;SHT31;48512;48.552;9.380;2023-04-02T06:40:40;8.89;81.98
62464;SHT31;48512;48.552;9.380;2023-04-02T06:43:29;9.07;81.44
62464;SHT31;48512;48.552;9.380;2023-04-02T06:46:30;9.36;80.80
62464;SHT31;48512;48.552;9.380;2023-04-02T06:52:02;9.20;81.48
62464;SHT31;48512;48.552;9.380;2023-04-02T06:54:30;9.18;81.88
62464;SHT31;48512;48.552;9.380;2023-04-02T06:57:02;9.16;80.59
62464;SHT31;48512;48.552;9.380;2023-04-02T06:59:33;9.28;80.66
62464;SHT31;48512;48.552;9.380;2023-04-02T07:02:17;9.44;79.30
62464;SHT31;48512;48.552;9.380;2023-04-02T07:04:45;9.39;80.36
62464;SHT31;48512;48.552;9.380;2023-04-02T07:07:11;9.44;79.99
62464;SHT31;48512;48.552;9.380;2023-04-02T07:09:41;9.42;80.35
62464;SHT31;48512;48.552;9.380;2023-04-02T07:12:12;9.46;79.82
62464;SHT31;48512;48.552;9.380;2023-04-02T07:14:39;9.47;80.23
62464;SHT31;48512;48.552;9.380;2023-04-02T07:17:06;9.51;80.76
62464;SHT31;48512;48.552;9.380;2023-04-02T07:19:32;9.57;78.78
62464;SHT31;48512;48.552;9.380;2023-04-02T07:21:59;9.56;78.47
62464;SHT31;48512;48.552;9.380;2023-04-02T07:24:30;9.66;78.54
62464;SHT31;48512;48.552;9.380;2023-04-02T07:26:57;9.71;78.76
62464;SHT31;48512;48.552;9.380;2023-04-02T07:29:23;9.87;78.41
62464;SHT31;48512;48.552;9.380;2023-04-02T07:31:49;9.98;78.11
62464;SHT31;48512;48.552;9.380;2023-04-02T07:34:17;10.11;77.36
62464;SHT31;48512;48.552;9.380;2023-04-02T07:36:43;10.02;76.92
62464;SHT31;48512;48.552;9.380;2023-04-02T07:39:09;9.97;76.99
62464;SHT31;48512;48.552;9.380;2023-04-02T07:41:59;10.50;82.67
62464;SHT31;48512;48.552;9.380;2023-04-02T07:44:26;11.75;84.25
62464;SHT31;48512;48.552;9.380;2023-04-02T07:46:53;11.80;76.30
62464;SHT31;48512;48.552;9.380;2023-04-02T07:49:19;11.67;75.99
62464;SHT31;48512;48.552;9.380;2023-04-02T07:51:46;11.51;75.51
62464;SHT31;48512;48.552;9.380;2023-04-02T07:54:12;11.38;75.09
62464;SHT31;48512;48.552;9.380;2023-04-02T07:56:38;11.18;75.04
62464;SHT31;48512;48.552;9.380;2023-04-02T07:59:04;11.17;75.12
62464;SHT31;48512;48.552;9.380;2023-04-02T08:01:31;11.01;74.91
62464;SHT31;48512;48.552;9.380;2023-04-02T08:04:02;11.06;74.59
62464;SHT31;48512;48.552;9.380;2023-04-02T08:06:29;10.97;74.89
62464;SHT31;48512;48.552;9.380;2023-04-02T08:08:56;11.04;74.97
62464;SHT31;48512;48.552;9.380;2023-04-02T08:11:23;11.08;73.74
62464;SHT31;48512;48.552;9.380;2023-04-02T08:13:49;10.98;73.50
62464;SHT31;48512;48.552;9.380;2023-04-02T08:16:15;10.91;73.39
62464;SHT31;48512;48.552;9.380;2023-04-02T08:18:41;10.93;73.65
62464;SHT31;48512;48.552;9.380;2023-04-02T08:21:09;11.06;75.47
62464;SHT31;48512;48.552;9.380;2023-04-02T08:23:35;11.03;75.70
62464;SHT31;48512;48.552;9.380;2023-04-02T08:26:02;11.01;73.70
62464;SHT31;48512;48.552;9.380;2023-04-02T08:28:29;10.90;73.87
62464;SHT31;48512;48.552;9.380;2023-04-02T08:30:55;10.97;74.46
62464;SHT31;48512;48.552;9.380;2023-04-02T08:33:21;10.89;74.17
62464;SHT31;48512;48.552;9.380;2023-04-02T08:35:48;10.89;74.59
62464;SHT31;48512;48.552;9.380;2023-04-02T08:38:17;11.00;74.00
62464;SHT31;48512;48.552;9.380;2023-04-02T08:40:46;11.00;73.54
62464;SHT31;48512;48.552;9.380;2023-04-02T08:46:18;10.87;74.86
62464;SHT31;48512;48.552;9.380;2023-04-02T08:48:54;10.96;74.07
62464;SHT31;48512;48.552;9.380;2023-04-02T08:51:28;10.93;74.37
62464;SHT31;48512;48.552;9.380;2023-04-02T08:54:00;11.12;73.57
62464;SHT31;48512;48.552;9.380;2023-04-02T08:56:32;10.96;74.22
62464;SHT31;48512;48.552;9.380;2023-04-02T08:59:08;11.03;74.25
62464;SHT31;48512;48.552;9.380;2023-04-02T09:04:20;11.00;74.43
62464;SHT31;48512;48.552;9.380;2023-04-02T09:06:48;11.01;74.56
62464;SHT31;48512;48.552;9.380;2023-04-02T09:09:18;11.04;74.32
62464;SHT31;48512;48.552;9.380;2023-04-02T09:11:52;11.07;74.58
62464;SHT31;48512;48.552;9.380;2023-04-02T09:14:24;11.08;74.74
62464;SHT31;48512;48.552;9.380;2023-04-02T09:16:54;11.08;75.16
62464;SHT31;48512;48.552;9.380;2023-04-02T09:19:30;11.07;75.81
62464;SHT31;48512;48.552;9.380;2023-04-02T09:22:22;11.07;76.26
62464;SHT31;48512;48.552;9.380;2023-04-02T09:24:54;11.08;76.65
62464;SHT31;48512;48.552;9.380;2023-04-02T09:27:23;11.08;76.96
62464;SHT31;48512;48.552;9.380;2023-04-02T09:29:56;11.12;77.05
62464;SHT31;48512;48.552;9.380;2023-04-02T09:32:45;11.15;77.08
62464;SHT31;48512;48.552;9.380;2023-04-02T09:35:16;11.22;76.91
62464;SHT31;48512;48.552;9.380;2023-04-02T09:37:44;11.32;77.19
62464;SHT31;48512;48.552;9.380;2023-04-02T09:42:45;11.38;76.40
62464;SHT31;48512;48.552;9.380;2023-04-02T09:45:22;11.46;76.19
62464;SHT31;48512;48.552;9.380;2023-04-02T09:47:50;11.52;76.40
62464;SHT31;48512;48.552;9.380;2023-04-02T09:52:49;11.65;75.70
62464;SHT31;48512;48.552;9.380;2023-04-02T09:57:45;11.61;75.75
62464;SHT31;48512;48.552;9.380;2023-04-02T10:02:45;11.67;74.71
62464;SHT31;48512;48.552;9.380;2023-04-02T10:05:18;11.77;74.92
62464;SHT31;48512;48.552;9.380;2023-04-02T10:07:47;11.70;74.20
62464;SHT31;48512;48.552;9.380;2023-04-02T10:10:34;11.72;74.48
62464;SHT31;48512;48.552;9.380;2023-04-02T10:13:24;11.75;74.42
62464;SHT31;48512;48.552;9.380;2023-04-02T10:15:59;11.82;74.23
62464;SHT31;48512;48.552;9.380;2023-04-02T10:19:25;11.90;73.50
62464;SHT31;48512;48.552;9.380;2023-04-02T10:21:36;11.98;72.57
62464;SHT31;48512;48.552;9.380;2023-04-02T10:24:16;12.04;71.02
62464;SHT31;48512;48.552;9.380;2023-04-02T10:46:08;12.51;68.31
62464;SHT31;48512;48.552;9.380;2023-04-02T10:51:38;12.83;68.28
62464;SHT31;48512;48.552;9.380;2023-04-02T10:56:49;12.97;68.21
62464;SHT31;48512;48.552;9.380;2023-04-02T10:59:26;13.00;67.83
62464;SHT31;48512;48.552;9.380;2023-04-02T11:01:56;12.96;66.54
62464;SHT31;48512;48.552;9.380;2023-04-02T11:04:28;12.88;67.03
62464;SHT31;48512;48.552;9.380;2023-04-02T11:09:26;12.96;66.17
62464;SHT31;48512;48.552;9.380;2023-04-02T11:11:56;13.09;65.89
62464;SHT31;48512;48.552;9.380;2023-04-02T11:14:28;13.10;66.01
62464;SHT31;48512;48.552;9.380;2023-04-02T11:16:55;13.30;65.79
62464;SHT31;48512;48.552;9.380;2023-04-02T11:19:25;13.38;65.27
62464;SHT31;48512;48.552;9.380;2023-04-02T11:22:00;13.38;63.65
62464;SHT31;48512;48.552;9.380;2023-04-02T11:29:46;13.61;65.80
62464;SHT31;48512;48.552;9.380;2023-04-02T11:42:44;14.21;62.49
62464;SHT31;48512;48.552;9.380;2023-04-02T11:53:41;14.79;61.75
62464;SHT31;48512;48.552;9.380;2023-04-02T11:55:44;14.72;61.80
62464;SHT31;48512;48.552;9.380;2023-04-02T11:58:36;14.82;62.03
62464;SHT31;48512;48.552;9.380;2023-04-02T12:10:03;14.51;63.52
62464;SHT31;48512;48.552;9.380;2023-04-02T12:12:35;14.31;63.76
62464;SHT31;48512;48.552;9.380;2023-04-02T12:15:52;14.31;64.53
62464;SHT31;48512;48.552;9.380;2023-04-02T12:18:09;14.12;65.62
62464;SHT31;48512;48.552;9.380;2023-04-02T12:20:36;14.12;66.49
62464;SHT31;48512;48.552;9.380;2023-04-02T12:23:03;14.19;66.22
62464;SHT31;48512;48.552;9.380;2023-04-02T12:30:40;13.95;66.27
62464;SHT31;48512;48.552;9.380;2023-04-02T12:35:57;13.85;66.13
62464;SHT31;48512;48.552;9.380;2023-04-02T12:38:29;13.93;66.73
62464;SHT31;48512;48.552;9.380;2023-04-02T12:41:01;13.89;67.06
62464;SHT31;48512;48.552;9.380;2023-04-02T12:43:31;13.89;66.61
62464;SHT31;48512;48.552;9.380;2023-04-02T12:46:02;14.06;66.04
62464;SHT31;48512;48.552;9.380;2023-04-02T12:48:30;14.06;65.80
62464;SHT31;48512;48.552;9.380;2023-04-02T12:50:57;14.03;65.51
62464;SHT31;48512;48.552;9.380;2023-04-02T12:53:37;14.08;65.22
62464;SHT31;48512;48.552;9.380;2023-04-02T12:56:04;13.99;66.13
62464;SHT31;48512;48.552;9.380;2023-04-02T12:58:36;14.10;66.12
62464;SHT31;48512;48.552;9.380;2023-04-02T13:03:36;14.06;65.82
62464;SHT31;48512;48.552;9.380;2023-04-02T13:06:03;14.23;66.30
62464;SHT31;48512;48.552;9.380;2023-04-02T13:08:42;14.37;65.80
62464;SHT31;48512;48.552;9.380;2023-04-02T13:11:08;14.65;64.99
62464;SHT31;48512;48.552;9.380;2023-04-02T13:13:36;15.12;70.84
62464;SHT31;48512;48.552;9.380;2023-04-02T13:18:46;16.50;66.00
62464;SHT31;48512;48.552;9.380;2023-04-02T13:23:42;17.25;61.48
62464;SHT31;48512;48.552;9.380;2023-04-02T13:26:10;17.66;59.54
62464;SHT31;48512;48.552;9.380;2023-04-02T13:28:39;17.90;58.50
62464;SHT31;48512;48.552;9.380;2023-04-02T13:31:12;18.17;58.10
62464;SHT31;48512;48.552;9.380;2023-04-02T13:33:39;18.32;56.64
62464;SHT31;48512;48.552;9.380;2023-04-02T13:36:07;18.24;56.69
62464;SHT31;48512;48.552;9.380;2023-04-02T13:38:34;19.07;55.14
62464;SHT31;48512;48.552;9.380;2023-04-02T13:41:00;18.97;55.14
62464;SHT31;48512;48.552;9.380;2023-04-02T13:43:26;19.14;54.47
62464;SHT31;48512;48.552;9.380;2023-04-02T13:46:03;19.20;53.60
62464;SHT31;48512;48.552;9.380;2023-04-02T13:48:30;19.45;53.73
62464;SHT31;48512;48.552;9.380;2023-04-02T13:50:56;19.63;51.72
62464;SHT31;48512;48.552;9.380;2023-04-02T13:53:28;19.47;52.60
62464;SHT31;48512;48.552;9.380;2023-04-02T13:55:55;19.24;52.42
62464;SHT31;48512;48.552;9.380;2023-04-02T13:58:21;19.14;52.27
62464;SHT31;48512;48.552;9.380;2023-04-02T14:00:48;19.13;52.56
62464;SHT31;48512;48.552;9.380;2023-04-02T14:03:21;19.02;52.73
62464;SHT31;48512;48.552;9.380;2023-04-02T14:22:50;17.34;55.12
62464;SHT31;48512;48.552;9.380;2023-04-02T14:33:47;16.36;58.69
62464;SHT31;48512;48.552;9.380;2023-04-02T14:41:34;16.11;58.46
62464;SHT31;48512;48.552;9.380;2023-04-02T14:44:05;15.87;59.02
62464;SHT31;48512;48.552;9.380;2023-04-02T14:46:35;15.55;59.60
62464;SHT31;48512;48.552;9.380;2023-04-02T14:51:44;15.97;59.56
62464;SHT31;48512;48.552;9.380;2023-04-02T14:56:59;14.68;63.44
62464;SHT31;48512;48.552;9.380;2023-04-02T15:02:41;14.64;64.78
62464;SHT31;48512;48.552;9.380;2023-04-02T15:05:37;14.31;66.56
62464;SHT31;48512;48.552;9.380;2023-04-02T15:13:16;13.44;69.59
62464;SHT31;48512;48.552;9.380;2023-04-02T15:15:57;13.21;71.75
62464;SHT31;48512;48.552;9.380;2023-04-02T15:18:28;13.21;71.99
62464;SHT31;48512;48.552;9.380;2023-04-02T15:21:13;13.28;71.92
62464;SHT31;48512;48.552;9.380;2023-04-02T15:32:17;12.30;75.96
62464;SHT31;48512;48.552;9.380;2023-04-02T15:35:16;12.17;76.32
62464;SHT31;48512;48.552;9.380;2023-04-02T15:38:19;12.32;75.76
62464;SHT31;48512;48.552;9.380;2023-04-02T15:48:56;12.21;75.79
62464;SHT31;48512;48.552;9.380;2023-04-02T15:59:54;11.91;77.94
62464;SHT31;48512;48.552;9.380;2023-04-02T16:10:36;13.81;73.89
62464;SHT31;48512;48.552;9.380;2023-04-02T16:13:15;14.16;71.18
62464;SHT31;48512;48.552;9.380;2023-04-02T16:15:49;14.45;71.16
62464;SHT31;48512;48.552;9.380;2023-04-02T16:20:54;14.63;69.46
62464;SHT31;48512;48.552;9.380;2023-04-02T16:23:35;14.13;71.25
62464;SHT31;48512;48.552;9.380;2023-04-02T16:35:00;12.08;74.04
62464;SHT31;48512;48.552;9.380;2023-04-02T16:37:51;11.87;74.51
62464;SHT31;48512;48.552;9.380;2023-04-02T16:43:32;11.32;75.76
62464;SHT31;48512;48.552;9.380;2023-04-02T16:48:44;11.29;76.52
62464;SHT31;48512;48.552;9.380;2023-04-02T16:51:28;11.27;76.35
62464;SHT31;48512;48.552;9.380;2023-04-02T16:54:38;11.77;78.59
62464;SHT31;48512;48.552;9.380;2023-04-02T16:57:22;11.65;75.11
62464;SHT31;48512;48.552;9.380;2023-04-02T17:05:39;10.83;76.63
62464;SHT31;48512;48.552;9.380;2023-04-02T17:08:29;10.59;77.67
62464;SHT31;48512;48.552;9.380;2023-04-02T17:11:08;10.46;78.20
62464;SHT31;48512;48.552;9.380;2023-04-02T17:13:45;10.36;77.87
62464;SHT31;48512;48.552;9.380;2023-04-02T17:18:47;10.08;79.06
62464;SHT31;48512;48.552;9.380;2023-04-02T17:21:18;10.22;78.25
62464;SHT31;48512;48.552;9.380;2023-04-02T17:24:09;10.11;79.12
62464;SHT31;48512;48.552;9.380;2023-04-02T17:26:46;10.21;81.64
62464;SHT31;48512;48.552;9.380;2023-04-02T17:29:18;9.78;79.14
62464;SHT31;48512;48.552;9.380;2023-04-02T17:31:45;9.97;78.65
62464;SHT31;48512;48.552;9.380;2023-04-02T17:34:15;9.95;77.80
62464;SHT31;48512;48.552;9.380;2023-04-02T17:36:59;9.80;77.98
62464;SHT31;48512;48.552;9.380;2023-04-02T17:42:23;9.74;79.03
62464;SHT31;48512;48.552;9.380;2023-04-02T17:53:15;9.73;79.09
62464;SHT31;48512;48.552;9.380;2023-04-02T18:01:27;9.87;78.21
62464;SHT31;48512;48.552;9.380;2023-04-02T18:04:07;9.64;78.63
62464;SHT31;48512;48.552;9.380;2023-04-02T18:17:37;9.18;78.22
62464;SHT31;48512;48.552;9.380;2023-04-02T18:20:29;9.25;78.22
62464;SHT31;48512;48.552;9.380;2023-04-02T18:29:05;9.42;79.72
62464;SHT31;48512;48.552;9.380;2023-04-02T18:50:53;8.74;78.05
62464;SHT31;48512;48.552;9.380;2023-04-02T18:53:23;8.53;78.87
62464;SHT31;48512;48.552;9.380;2023-04-02T18:56:03;8.42;79.26
62464;SHT31;48512;48.552;9.380;2023-04-02T18:58:33;8.46;79.27
62464;SHT31;48512;48.552;9.380;2023-04-02T19:01:03;8.57;78.72
62464;SHT31;48512;48.552;9.380;2023-04-02T19:03:38;8.50;78.65
62464;SHT31;48512;48.552;9.380;2023-04-02T19:06:36;8.54;78.67
62464;SHT31;48512;48.552;9.380;2023-04-02T19:09:05;8.44;78.96
62464;SHT31;48512;48.552;9.380;2023-04-02T19:11:33;8.52;78.66
62464;SHT31;48512;48.552;9.380;2023-04-02T19:14:09;8.40;78.58
62464;SHT31;48512;48.552;9.380;2023-04-02T19:19:27;8.23;79.23
62464;SHT31;48512;48.552;9.380;2023-04-02T19:33:19;8.05;78.50
62464;SHT31;48512;48.552;9.380;2023-04-02T19:44:56;8.15;77.20
62464;SHT31;48512;48.552;9.380;2023-04-02T19:47:22;8.02;77.26
62464;SHT31;48512;48.552;9.380;2023-04-02T19:49:49;7.91;77.58
62464;SHT31;48512;48.552;9.380;2023-04-02T19:52:16;7.85;77.78
62464;SHT31;48512;48.552;9.380;2023-04-02T19:54:42;7.81;77.75
62464;SHT31;48512;48.552;9.380;2023-04-02T19:57:14;7.85;77.85
62464;SHT31;48512;48.552;9.380;2023-04-02T19:59:41;7.81;77.68
62464;SHT31;48512;48.552;9.380;2023-04-02T20:02:09;7.56;78.46
62464;SHT31;48512;48.552;9.380;2023-04-02T20:04:35;7.31;79.25
62464;SHT31;48512;48.552;9.380;2023-04-02T20:07:02;7.43;78.46
62464;SHT31;48512;48.552;9.380;2023-04-02T20:09:28;7.26;78.74
62464;SHT31;48512;48.552;9.380;2023-04-02T20:11:54;7.44;77.62
62464;SHT31;48512;48.552;9.380;2023-04-02T20:14:20;7.26;78.27
62464;SHT31;48512;48.552;9.380;2023-04-02T20:16:46;7.24;78.52
62464;SHT31;48512;48.552;9.380;2023-04-02T20:19:13;7.15;78.32
62464;SHT31;48512;48.552;9.380;2023-04-02T20:21:39;7.09;78.34
62464;SHT31;48512;48.552;9.380;2023-04-02T20:24:05;6.99;78.07
62464;SHT31;48512;48.552;9.380;2023-04-02T20:26:33;6.89;78.33
62464;SHT31;48512;48.552;9.380;2023-04-02T20:28:59;6.82;78.87
62464;SHT31;48512;48.552;9.380;2023-04-02T20:31:26;6.71;79.09
62464;SHT31;48512;48.552;9.380;2023-04-02T20:33:56;6.79;78.52
62464;SHT31;48512;48.552;9.380;2023-04-02T20:36:22;6.70;78.73
62464;SHT31;48512;48.552;9.380;2023-04-02T20:38:50;6.75;78.89
62464;SHT31;48512;48.552;9.380;2023-04-02T20:41:17;6.72;78.56
62464;SHT31;48512;48.552;9.380;2023-04-02T20:43:44;6.71;78.32
62464;SHT31;48512;48.552;9.380;2023-04-02T20:46:11;6.84;77.64
62464;SHT31;48512;48.552;9.380;2023-04-02T20:48:38;6.92;77.53
62464;SHT31;48512;48.552;9.380;2023-04-02T20:51:06;6.84;77.67
62464;SHT31;48512;48.552;9.380;2023-04-02T20:53:34;6.81;77.93
62464;SHT31;48512;48.552;9.380;2023-04-02T20:56:10;6.61;78.41
62464;SHT31;48512;48.552;9.380;2023-04-02T20:58:37;6.72;78.21
62464;SHT31;48512;48.552;9.380;2023-04-02T21:01:13;6.68;77.70
62464;SHT31;48512;48.552;9.380;2023-04-02T21:03:41;6.60;77.76
62464;SHT31;48512;48.552;9.380;2023-04-02T21:06:14;6.53;77.57
62464;SHT31;48512;48.552;9.380;2023-04-02T21:08:41;6.57;77.33
62464;SHT31;48512;48.552;9.380;2023-04-02T21:11:08;6.47;76.96
62464;SHT31;48512;48.552;9.380;2023-04-02T21:13:35;6.55;76.84
62464;SHT31;48512;48.552;9.380;2023-04-02T21:16:04;6.58;76.81
62464;SHT31;48512;48.552;9.380;2023-04-02T21:18:30;6.44;77.04
62464;SHT31;48512;48.552;9.380;2023-04-02T21:21:02;6.41;76.79
62464;SHT31;48512;48.552;9.380;2023-04-02T21:23:30;6.51;76.03
62464;SHT31;48512;48.552;9.380;2023-04-02T21:26:01;6.17;76.59
62464;SHT31;48512;48.552;9.380;2023-04-02T21:28:29;6.07;77.20
62464;SHT31;48512;48.552;9.380;2023-04-02T21:31:06;6.17;76.57
62464;SHT31;48512;48.552;9.380;2023-04-02T21:33:36;6.36;75.77
62464;SHT31;48512;48.552;9.380;2023-04-02T21:36:08;6.43;75.65
62464;SHT31;48512;48.552;9.380;2023-04-02T21:38:34;6.30;75.30
62464;SHT31;48512;48.552;9.380;2023-04-02T21:41:09;6.23;75.60
62464;SHT31;48512;48.552;9.380;2023-04-02T21:43:35;6.02;75.71
62464;SHT31;48512;48.552;9.380;2023-04-02T21:46:01;6.17;75.59
62464;SHT31;48512;48.552;9.380;2023-04-02T21:48:29;6.32;75.12
62464;SHT31;48512;48.552;9.380;2023-04-02T21:51:15;6.24;74.98
62464;SHT31;48512;48.552;9.380;2023-04-02T21:53:42;6.26;74.30
62464;SHT31;48512;48.552;9.380;2023-04-02T21:56:14;6.09;73.99
62464;SHT31;48512;48.552;9.380;2023-04-02T21:58:40;6.19;74.20
62464;SHT31;48512;48.552;9.380;2023-04-02T22:01:08;6.23;73.97
62464;SHT31;48512;48.552;9.380;2023-04-02T22:03:35;6.32;74.03
62464;SHT31;48512;48.552;9.380;2023-04-02T22:06:12;6.16;74.27